Time;durP1;ratioP1;P1;durP2;ratioP2;P2;SDS_P1;SDS_P2;PMS_P1;PMS_P2;Temp;Humidity;BMP_temperature;BMP_pressure;BME280_temperature;BME280_humidity;BME280_pressure;Samples;Min_cycle;Max_cycle;Signal;HPM_P1;HPM_P2
2022/03/29 00:01:04;;;;;;;26.45;11.48;;;;;;;6.75;70.83;100173.84;4438808;32;20093;-72
2022/03/29 00:03:31;;;;;;;22.20;12.37;;;;;;;6.64;71.52;100166.00;4438856;32;20135;-72
2022/03/29 00:05:59;;;;;;;20.90;11.35;;;;;;;6.50;72.07;100165.06;4438976;32;20419;-72
2022/03/29 00:08:26;;;;;;;32.83;13.18;;;;;;;6.40;72.33;100166.84;4438680;32;20127;-72
2022/03/29 00:10:53;;;;;;;35.50;16.00;;;;;;;6.37;72.98;100165.94;4438653;32;20587;-72
2022/03/29 00:13:21;;;;;;;33.03;15.57;;;;;;;6.35;72.88;100168.56;4438678;32;20112;-72
2022/03/29 00:15:48;;;;;;;19.50;12.10;;;;;;;6.25;73.99;100153.69;4438617;32;20094;-72
2022/03/29 00:18:16;;;;;;;29.25;13.68;;;;;;;6.21;74.57;100159.81;4438803;32;20154;-72
2022/03/29 00:20:43;;;;;;;22.42;12.02;;;;;;;6.11;75.02;100152.81;4438592;32;20104;-72
2022/03/29 00:23:10;;;;;;;24.80;12.18;;;;;;;6.03;75.22;100152.78;4438584;32;20077;-72
2022/03/29 00:25:37;;;;;;;23.42;12.13;;;;;;;6.03;74.99;100144.06;4438564;32;20135;-72
2022/03/29 00:28:04;;;;;;;22.17;11.18;;;;;;;5.92;76.01;100144.91;4438533;32;20128;-72
2022/03/29 00:30:32;;;;;;;30.62;11.73;;;;;;;5.86;75.92;100133.50;4438733;32;20163;-72
2022/03/29 00:32:59;;;;;;;21.67;11.55;;;;;;;5.86;75.14;100130.91;4438243;32;20093;-72
2022/03/29 00:35:26;;;;;;;20.45;10.57;;;;;;;5.77;76.30;100129.16;4438527;32;20101;-72
2022/03/29 00:37:53;;;;;;;24.98;9.90;;;;;;;5.82;75.67;100131.75;4438422;32;20100;-72
2022/03/29 00:40:21;;;;;;;26.85;10.90;;;;;;;5.89;74.89;100123.94;4438380;32;20119;-72
2022/03/29 00:42:48;;;;;;;19.17;9.27;;;;;;;5.88;76.39;100119.59;4438342;32;20573;-72
2022/03/29 00:45:16;;;;;;;20.12;10.15;;;;;;;5.98;74.29;100120.53;4438377;32;20089;-72
2022/03/29 00:47:43;;;;;;;26.50;10.23;;;;;;;6.00;75.73;100118.78;4438569;32;20496;-72
2022/03/29 00:50:11;;;;;;;21.35;10.98;;;;;;;5.91;75.98;100119.59;4438352;32;20097;-72
2022/03/29 00:52:39;;;;;;;18.08;9.65;;;;;;;5.79;76.11;100116.06;4438271;32;20089;-72
2022/03/29 00:55:11;;;;;;;14.65;9.32;;;;;;;5.83;75.70;100107.34;4438215;32;20123;-72
2022/03/29 00:57:38;;;;;;;20.83;10.07;;;;;;;5.75;76.17;100113.44;4438154;32;20440;-72
2022/03/29 01:00:07;;;;;;;21.00;10.75;;;;;;;5.75;75.68;100107.34;4438428;32;20173;-72
2022/03/29 01:02:35;;;;;;;25.25;11.18;;;;;;;5.72;77.01;100103.00;4438388;32;20456;-72
2022/03/29 01:05:02;;;;;;;18.25;9.70;;;;;;;5.61;76.86;100099.44;4438125;32;20139;-72
2022/03/29 01:07:30;;;;;;;17.42;9.50;;;;;;;5.56;76.21;100095.97;4438030;32;20505;-72
2022/03/29 01:09:58;;;;;;;21.37;11.25;;;;;;;5.45;77.72;100095.91;4438276;32;20472;-72
2022/03/29 01:12:25;;;;;;;17.67;10.15;;;;;;;5.35;77.61;100090.66;4438023;32;20535;-72
2022/03/29 01:14:53;;;;;;;24.50;9.98;;;;;;;5.26;79.27;100087.13;4437888;32;20094;-72
2022/03/29 01:17:38;;;;;;;19.35;10.20;;;;;;;5.27;78.47;100085.38;4437809;32;20096;-72
2022/03/29 01:20:13;;;;;;;27.37;10.20;;;;;;;5.41;77.00;100077.63;4438023;32;20089;-72
2022/03/29 01:22:42;;;;;;;17.92;9.73;;;;;;;5.42;77.87;100076.75;4437924;32;20112;-72
2022/03/29 01:25:16;;;;;;;19.75;10.23;;;;;;;5.58;75.54;100072.44;4437901;32;20188;-72
2022/03/29 01:27:46;;;;;;;19.98;10.55;;;;;;;5.57;76.12;100076.78;4438099;32;20081;-72
2022/03/29 01:30:14;;;;;;;21.60;10.20;;;;;;;5.51;75.85;100069.81;4437788;32;20449;-72
2022/03/29 01:32:47;;;;;;;22.27;10.55;;;;;;;5.41;77.94;100075.00;4437440;32;20128;-72
2022/03/29 01:35:21;;;;;;;23.15;11.18;;;;;;;5.22;79.20;100074.91;4437781;32;20158;-72
2022/03/29 01:37:49;;;;;;;20.90;10.18;;;;;;;5.15;79.14;100070.50;4437865;32;20119;-72
2022/03/29 01:40:19;;;;;;;18.12;10.10;;;;;;;5.12;79.29;100067.00;4437616;32;20693;-72
2022/03/29 01:42:52;;;;;;;15.07;9.35;;;;;;;5.14;79.06;100065.28;4437650;32;20086;-72
2022/03/29 01:45:23;;;;;;;19.83;10.52;;;;;;;5.23;78.54;100062.75;4423437;32;20111;-72
2022/03/29 01:47:50;;;;;;;14.75;9.07;;;;;;;5.14;78.96;100055.72;4437606;32;20115;-72
2022/03/29 01:50:17;;;;;;;25.42;10.25;;;;;;;5.28;76.77;100063.63;4437436;32;20159;-72
2022/03/29 01:52:47;;;;;;;18.80;9.90;;;;;;;5.35;77.79;100046.22;4437613;32;20588;-72
2022/03/29 01:55:16;;;;;;;23.65;10.48;;;;;;;5.25;77.48;100040.97;4437571;32;20465;-72
2022/03/29 01:57:44;;;;;;;19.40;9.73;;;;;;;5.31;78.34;100034.03;4437357;32;20093;-72
2022/03/29 02:00:34;;;;;;;17.45;9.68;;;;;;;5.17;78.18;100034.84;4437282;32;20919;-72
2022/03/29 02:03:06;;;;;;;24.37;9.85;;;;;;;5.04;79.17;100039.12;4437391;32;20152;-72
2022/03/29 02:05:34;;;;;;;17.25;9.38;;;;;;;5.18;78.33;100040.94;4437401;32;20073;-72
2022/03/29 02:08:03;;;;;;;19.95;10.13;;;;;;;5.42;75.90;100034.94;4437182;32;20124;-72
2022/03/29 02:10:30;;;;;;;22.70;9.73;;;;;;;5.34;77.01;100028.81;4438103;32;20131;-72
2022/03/29 02:12:58;;;;;;;22.52;9.57;;;;;;;5.17;78.34;100029.63;4439483;32;20401;-72
2022/03/29 02:15:26;;;;;;;17.98;9.75;;;;;;;4.99;78.52;100025.19;4439459;32;20149;-72
2022/03/29 02:17:53;;;;;;;25.00;10.10;;;;;;;4.88;79.41;100026.00;4439831;32;20531;-72
2022/03/29 02:20:23;;;;;;;22.90;10.05;;;;;;;4.84;79.03;100019.87;4439564;32;20421;-72
2022/03/29 02:22:50;;;;;;;26.33;11.63;;;;;;;4.82;80.23;100023.34;4439368;32;20081;-72
2022/03/29 02:25:17;;;;;;;16.52;9.38;;;;;;;4.74;80.98;100024.19;4439584;32;20476;-72
2022/03/29 02:27:45;;;;;;;23.62;11.12;;;;;;;4.69;80.75;100020.66;4439377;32;20096;-72
2022/03/29 02:30:15;;;;;;;18.12;9.18;;;;;;;4.77;80.39;100018.97;4439506;32;20204;-72
2022/03/29 02:32:42;;;;;;;18.20;8.73;;;;;;;4.79;79.87;100018.97;4439299;32;20437;-72
2022/03/29 02:35:10;;;;;;;17.58;9.65;;;;;;;4.98;77.85;100014.72;4439496;32;20097;-72
2022/03/29 02:37:38;;;;;;;22.08;9.95;;;;;;;5.14;76.34;100006.09;4439338;32;20113;-72
2022/03/29 02:40:07;;;;;;;23.73;10.10;;;;;;;5.03;78.73;100008.66;4439313;32;20093;-72
2022/03/29 02:42:45;;;;;;;14.98;9.38;;;;;;;4.88;79.28;100006.00;4439203;32;20173;-72
2022/03/29 02:45:16;;;;;;;25.52;10.48;;;;;;;4.79;79.77;99998.09;4439317;32;20190;-72
2022/03/29 02:47:49;;;;;;;24.33;10.45;;;;;;;4.58;81.28;100001.44;4439230;32;20128;-72
2022/03/29 02:50:17;;;;;;;27.92;10.23;;;;;;;4.47;81.93;100000.50;4424719;32;20143;-72
2022/03/29 02:52:45;;;;;;;15.68;9.10;;;;;;;4.58;80.28;100004.06;4439392;32;20120;-72
2022/03/29 02:55:12;;;;;;;24.23;10.57;;;;;;;4.56;80.75;99995.38;4439242;32;20119;-72
2022/03/29 02:57:40;;;;;;;14.55;8.95;;;;;;;4.62;80.74;99994.50;4439226;32;20089;-72
2022/03/29 03:00:07;;;;;;;19.75;10.02;;;;;;;4.65;79.89;99992.78;4424811;32;20180;-72
2022/03/29 03:02:34;;;;;;;22.62;9.70;;;;;;;4.67;79.51;99995.44;4439257;32;20101;-72
2022/03/29 03:05:03;;;;;;;18.27;10.10;;;;;;;4.88;77.20;99995.53;4439225;32;20120;-72
2022/03/29 03:07:30;;;;;;;21.67;9.70;;;;;;;4.81;78.88;99992.91;4439328;32;20116;-72
2022/03/29 03:09:57;;;;;;;20.85;9.90;;;;;;;4.58;81.07;99993.63;4439126;32;20385;-72
2022/03/29 03:12:25;;;;;;;15.38;8.77;;;;;;;4.48;80.98;99991.81;4439083;32;20133;-72
2022/03/29 03:14:52;;;;;;;16.52;9.25;;;;;;;4.71;78.32;99991.97;4439213;32;20444;-72
2022/03/29 03:17:19;;;;;;;20.85;10.18;;;;;;;4.81;77.54;99992.91;4439137;32;20093;-72
2022/03/29 03:19:47;;;;;;;21.73;9.50;;;;;;;4.89;76.72;99991.19;4439342;32;20172;-72
2022/03/29 03:22:14;;;;;;;17.35;8.70;;;;;;;4.83;77.78;99998.97;4437914;32;20073;-72
2022/03/29 03:24:41;;;;;;;21.17;9.95;;;;;;;4.73;78.01;99993.69;4439064;32;20146;-72
2022/03/29 03:27:08;;;;;;;20.42;9.63;;;;;;;4.73;78.14;99992.84;4439105;32;20105;-72
2022/03/29 03:29:35;;;;;;;17.23;9.82;;;;;;;4.72;78.36;99985.87;4424587;32;20136;-72
2022/03/29 03:32:03;;;;;;;18.50;9.60;;;;;;;4.63;79.90;99989.31;4438929;32;20132;-72
2022/03/29 03:34:30;;;;;;;23.87;11.55;;;;;;;4.77;77.78;99987.66;4439169;32;20139;-72
2022/03/29 03:36:58;;;;;;;24.42;12.73;;;;;;;4.73;78.64;99980.66;4439213;32;20131;-72
2022/03/29 03:39:25;;;;;;;23.23;10.75;;;;;;;4.69;79.33;99976.28;4439031;32;20528;-72
2022/03/29 03:41:53;;;;;;;22.77;10.35;;;;;;;4.69;78.72;99978.91;4439303;32;20170;-72
2022/03/29 03:44:20;;;;;;;28.65;11.35;;;;;;;4.76;77.68;99977.19;4435793;32;20089;-72
2022/03/29 03:46:47;;;;;;;16.10;8.70;;;;;;;4.78;77.05;99972.88;4439160;32;20112;-72
2022/03/29 03:49:15;;;;;;;26.23;10.70;;;;;;;4.92;76.24;99962.50;4439228;32;20109;-72
2022/03/29 03:51:42;;;;;;;20.23;10.27;;;;;;;4.90;76.73;99970.31;4439431;32;20111;-72
2022/03/29 03:54:09;;;;;;;23.00;10.02;;;;;;;4.79;78.03;99972.00;4439685;32;20400;-72
2022/03/29 03:56:36;;;;;;;25.37;9.90;;;;;;;4.89;76.72;99972.91;4434315;32;20213;-72
2022/03/29 03:59:04;;;;;;;20.30;10.00;;;;;;;4.95;75.75;99970.34;4427148;32;20134;-72
2022/03/29 04:01:31;;;;;;;24.80;10.55;;;;;;;4.95;75.71;99968.59;4425562;32;20077;-71
2022/03/29 04:03:59;;;;;;;29.98;11.70;;;;;;;4.86;76.86;99967.69;4432771;32;20101;-71
2022/03/29 04:06:26;;;;;;;18.20;10.43;;;;;;;4.63;79.14;99964.94;4429246;32;20132;-71
2022/03/29 04:08:53;;;;;;;28.42;10.55;;;;;;;4.45;79.63;99965.69;4427637;32;20781;-71
2022/03/29 04:11:21;;;;;;;25.58;10.40;;;;;;;4.40;79.41;99959.59;4424113;32;20192;-71
2022/03/29 04:13:48;;;;;;;31.25;11.25;;;;;;;4.37;79.86;99956.97;4422418;32;20090;-71
2022/03/29 04:16:15;;;;;;;21.73;11.07;;;;;;;4.21;81.86;99956.00;4434708;32;20127;-72
2022/03/29 04:18:42;;;;;;;26.92;10.50;;;;;;;4.17;82.58;99952.50;4422452;32;20776;-72
2022/03/29 04:21:11;;;;;;;24.95;11.68;;;;;;;4.20;82.72;99957.72;4429280;32;20712;-72
2022/03/29 04:23:38;;;;;;;36.90;12.68;;;;;;;4.28;83.28;99958.66;4436251;32;20107;-71
2022/03/29 04:26:06;;;;;;;28.75;11.60;;;;;;;4.31;82.94;99956.09;4432700;32;20108;-72
2022/03/29 04:28:33;;;;;;;35.97;13.80;;;;;;;4.48;81.84;99956.16;4437845;32;20252;-72
2022/03/29 04:31:00;;;;;;;32.42;12.70;;;;;;;4.60;82.21;99958.00;4437774;32;20081;-72
2022/03/29 04:33:28;;;;;;;31.52;11.95;;;;;;;4.69;82.53;99955.41;4437336;32;20123;-72
2022/03/29 04:35:56;;;;;;;39.95;12.00;;;;;;;4.76;81.59;99946.75;4437741;32;20127;-72
2022/03/29 04:38:23;;;;;;;32.85;11.45;;;;;;;4.79;81.59;99956.34;4437701;32;20876;-72
2022/03/29 04:40:52;;;;;;;26.08;12.45;;;;;;;4.85;80.86;99948.53;4437633;32;20109;-73
2022/03/29 04:43:19;;;;;;;36.28;12.65;;;;;;;4.94;80.92;99947.69;4437634;32;20131;-72
2022/03/29 04:45:46;;;;;;;30.33;12.77;;;;;;;5.07;80.91;99946.88;4438327;32;20093;-72
2022/03/29 04:48:14;;;;;;;38.53;13.10;;;;;;;5.22;80.20;99935.59;4439171;32;20127;-72
2022/03/29 04:50:41;;;;;;;42.60;14.55;;;;;;;5.34;79.67;99929.53;4424860;32;20148;-71
2022/03/29 04:53:08;;;;;;;32.78;12.93;;;;;;;5.40;78.81;99921.69;4438956;32;20215;-73
2022/03/29 04:55:36;;;;;;;39.35;13.48;;;;;;;5.38;78.54;99926.94;4439053;32;20123;-72
2022/03/29 04:58:03;;;;;;;37.97;13.98;;;;;;;5.35;78.42;99931.28;4439061;32;20093;-72
2022/03/29 05:00:30;;;;;;;32.25;14.77;;;;;;;5.34;78.52;99926.94;4439035;32;20480;-72
2022/03/29 05:02:58;;;;;;;42.20;18.67;;;;;;;5.34;78.37;99924.31;4438395;32;20709;-72
2022/03/29 05:05:25;;;;;;;52.55;20.30;;;;;;;5.27;78.82;99929.53;4438497;32;20464;-72
2022/03/29 05:07:52;;;;;;;51.33;22.27;;;;;;;5.28;78.72;99928.66;4438924;32;20101;-71
2022/03/29 05:10:20;;;;;;;57.92;21.45;;;;;;;5.39;78.37;99930.41;4428628;32;20158;-72
2022/03/29 05:12:49;;;;;;;45.05;21.65;;;;;;;5.46;77.74;99921.72;4431784;32;20106;-72
2022/03/29 05:15:20;;;;;;;60.40;19.60;;;;;;;5.42;77.55;99930.41;4426372;32;20127;-73
2022/03/29 05:17:47;;;;;;;44.22;19.30;;;;;;;5.48;77.35;99930.44;4432896;32;20126;-73
2022/03/29 05:20:16;;;;;;;45.90;18.55;;;;;;;5.60;76.47;99929.56;4437774;32;20093;-72
2022/03/29 05:22:48;;;;;;;61.53;19.05;;;;;;;5.67;76.62;99936.56;4433005;32;20119;-72
2022/03/29 05:25:23;;;;;;;32.80;17.05;;;;;;;5.83;76.06;99935.69;4423150;32;20081;-72
2022/03/29 05:27:52;;;;;;;40.15;17.00;;;;;;;5.85;75.78;99931.31;4422837;32;20484;-73
2022/03/29 05:30:21;;;;;;;41.65;17.55;;;;;;;5.85;75.79;99933.94;4422426;32;20247;-72
2022/03/29 05:32:51;;;;;;;63.67;20.40;;;;;;;5.86;75.92;99942.66;4422674;32;20115;-73
2022/03/29 05:35:18;;;;;;;44.45;18.30;;;;;;;5.97;75.78;99936.59;4423051;32;20783;-72
2022/03/29 05:37:46;;;;;;;40.00;15.80;;;;;;;6.05;75.47;99946.19;4422647;32;20157;-72
2022/03/29 05:40:13;;;;;;;36.33;14.95;;;;;;;6.17;75.07;99939.19;4422868;32;20094;-73
2022/03/29 05:42:43;;;;;;;34.08;14.13;;;;;;;6.27;74.50;99950.50;4422866;32;20120;-73
2022/03/29 05:45:13;;;;;;;59.33;15.00;;;;;;;6.33;74.33;99953.13;4422415;32;20112;-73
2022/03/29 05:50:47;;;;;;;52.05;15.68;;;;;;;6.38;73.92;99947.87;4361163;32;20091;-73
2022/03/29 05:53:14;;;;;;;37.70;15.80;;;;;;;6.56;73.45;99949.56;4348485;32;20156;-72
2022/03/29 05:55:42;;;;;;;46.70;15.73;;;;;;;6.69;72.87;99944.31;4400335;32;20118;-73
2022/03/29 05:58:09;;;;;;;43.50;14.60;;;;;;;6.79;73.14;99949.53;4436328;32;20162;-72
2022/03/29 06:00:36;;;;;;;38.25;15.25;;;;;;;6.90;72.88;99942.50;4424325;32;20120;-72
2022/03/29 06:03:04;;;;;;;50.83;15.15;;;;;;;7.10;72.16;99950.25;4413001;32;20409;-72
2022/03/29 06:05:32;;;;;;;41.13;15.57;;;;;;;7.24;71.81;99942.31;4431011;32;20461;-72
2022/03/29 06:07:59;;;;;;;41.97;14.60;;;;;;;7.34;72.42;99946.63;4433465;32;20539;-72
2022/03/29 06:10:26;;;;;;;45.83;15.27;;;;;;;7.57;71.19;99942.13;4431043;32;20082;-72
2022/03/29 06:12:54;;;;;;;42.62;15.02;;;;;;;7.80;69.44;99941.06;4424440;32;20400;-72
2022/03/29 06:15:21;;;;;;;31.85;13.70;;;;;;;7.94;69.63;99941.84;4424069;32;20093;-74
2022/03/29 06:17:48;;;;;;;35.75;13.70;;;;;;;8.12;69.38;99936.41;4424718;32;20177;-73
2022/03/29 06:20:15;;;;;;;37.63;14.70;;;;;;;8.24;68.79;99943.34;4424391;32;20120;-72
2022/03/29 06:22:46;;;;;;;33.00;14.15;;;;;;;8.31;68.75;99934.50;4410030;32;20112;-73
2022/03/29 06:25:13;;;;;;;26.40;13.98;;;;;;;8.57;67.66;99931.63;4429051;32;20100;-72
2022/03/29 06:27:41;;;;;;;35.05;14.02;;;;;;;8.77;67.10;99930.56;4429548;32;20196;-73
2022/03/29 06:30:10;;;;;;;27.02;13.30;;;;;;;8.94;66.00;99923.34;4436366;32;20105;-73
2022/03/29 06:32:53;;;;;;;34.00;13.55;;;;;;;9.09;64.99;99920.50;4427375;32;20689;-73
2022/03/29 06:35:25;;;;;;;31.20;13.62;;;;;;;9.23;64.08;99920.31;4427571;32;20218;-72
2022/03/29 06:37:56;;;;;;;39.05;12.98;;;;;;;9.29;64.67;99929.88;4423936;32;20481;-73
2022/03/29 06:40:25;;;;;;;25.98;12.70;;;;;;;9.39;64.54;99923.59;4409776;32;20111;-73
2022/03/29 06:42:57;;;;;;;30.25;12.73;;;;;;;9.56;63.27;99926.84;4424555;32;20102;-72
2022/03/29 06:45:26;;;;;;;29.63;13.38;;;;;;;9.70;62.84;99920.50;4427604;32;20085;-72
2022/03/29 06:47:54;;;;;;;27.40;11.82;;;;;;;9.66;62.80;99917.06;4440032;32;20127;-74
2022/03/29 06:50:21;;;;;;;30.08;13.68;;;;;;;9.83;62.62;99919.44;4439942;32;20346;-74
2022/03/29 06:52:49;;;;;;;37.72;13.48;;;;;;;10.08;61.96;99921.66;4439664;32;20096;-73
2022/03/29 06:55:18;;;;;;;21.67;13.15;;;;;;;10.20;60.77;99918.78;4437352;32;20127;-73
2022/03/29 06:57:45;;;;;;;27.35;12.27;;;;;;;10.14;60.34;99919.78;4439748;32;20113;-73
2022/03/29 07:00:13;;;;;;;25.77;12.70;;;;;;;10.10;60.77;99914.56;4438425;32;20086;-73
2022/03/29 07:02:40;;;;;;;28.08;13.32;;;;;;;10.07;61.07;99920.78;4439820;32;20674;-73
2022/03/29 07:05:08;;;;;;;24.77;12.63;;;;;;;10.33;60.91;99912.44;4435555;32;20096;-73
2022/03/29 07:07:35;;;;;;;24.80;13.05;;;;;;;10.61;58.51;99911.91;4431024;32;20128;-72
2022/03/29 07:13:00;;;;;;;27.10;12.63;;;;;;;10.85;58.40;99914.06;4431955;32;20077;-73
2022/03/29 07:15:28;;;;;;;27.20;12.55;;;;;;;10.98;57.57;99909.37;4433160;32;20113;-72
2022/03/29 07:17:56;;;;;;;31.67;12.73;;;;;;;11.22;57.18;99911.50;4438949;32;20207;-73
2022/03/29 07:20:24;;;;;;;27.27;11.65;;;;;;;11.31;56.36;99914.81;4432616;32;20748;-73
2022/03/29 07:22:52;;;;;;;23.02;12.32;;;;;;;11.30;55.93;99913.09;4430824;32;20093;-73
2022/03/29 07:25:20;;;;;;;46.05;12.73;;;;;;;11.40;55.35;99904.06;4437582;32;20138;-74
2022/03/29 07:27:49;;;;;;;29.77;13.32;;;;;;;11.55;54.48;99909.00;4439695;32;20139;-73
2022/03/29 07:30:17;;;;;;;22.73;12.90;;;;;;;11.71;54.08;99917.44;4439330;32;20137;-72
2022/03/29 07:32:47;;;;;;;24.58;13.85;;;;;;;11.81;53.63;99907.53;4439629;32;20158;-72
2022/03/29 07:35:16;;;;;;;34.20;13.98;;;;;;;11.96;52.97;99909.81;4439810;32;20101;-72
2022/03/29 07:37:44;;;;;;;33.55;13.48;;;;;;;11.89;52.91;99903.81;4439376;32;20148;-71
2022/03/29 07:40:14;;;;;;;25.75;13.98;;;;;;;12.06;53.46;99908.66;4425264;32;20154;-70
2022/03/29 07:42:41;;;;;;;28.65;12.70;;;;;;;12.07;52.73;99904.25;4439540;32;20097;-71
2022/03/29 07:45:12;;;;;;;25.00;13.60;;;;;;;12.42;52.33;99898.91;4439546;32;20093;-71
2022/03/29 07:47:43;;;;;;;20.85;13.00;;;;;;;12.61;51.79;99896.59;4439645;32;20097;-71
2022/03/29 07:50:33;;;;;;;31.87;13.88;;;;;;;12.76;51.69;99892.69;4437067;32;20080;-72
2022/03/29 07:53:05;;;;;;;25.55;13.52;;;;;;;12.87;50.78;99893.22;4426607;32;20127;-72
2022/03/29 07:55:35;;;;;;;26.60;14.10;;;;;;;13.06;49.67;99892.69;4423706;32;20487;-71
2022/03/29 07:58:12;;;;;;;19.67;13.20;;;;;;;13.15;49.28;99898.56;4434608;32;20109;-72
2022/03/29 08:00:40;;;;;;;22.00;13.32;;;;;;;13.08;48.72;99886.44;4417380;32;20111;-72
2022/03/29 08:03:14;;;;;;;26.17;13.32;;;;;;;13.12;49.15;99884.56;4430169;32;20161;-73
2022/03/29 08:05:43;;;;;;;28.35;15.02;;;;;;;13.41;49.68;99896.94;4439393;32;20101;-71
2022/03/29 08:08:13;;;;;;;31.33;13.68;;;;;;;13.51;48.54;99897.50;4438607;32;20203;-72
2022/03/29 08:10:42;;;;;;;36.65;15.20;;;;;;;13.61;48.40;99893.66;4427523;32;20108;-71
2022/03/29 08:13:10;;;;;;;37.50;15.82;;;;;;;13.73;47.93;99887.09;4423806;32;20124;-72
2022/03/29 08:15:39;;;;;;;34.30;14.75;;;;;;;13.88;47.79;99881.28;4425841;32;20097;-71
2022/03/29 08:18:07;;;;;;;29.33;14.93;;;;;;;14.21;46.80;99876.63;4424081;32;20143;-72
2022/03/29 08:20:36;;;;;;;30.52;15.13;;;;;;;14.44;45.64;99886.41;4423870;32;20077;-72
2022/03/29 08:23:03;;;;;;;27.25;14.63;;;;;;;14.52;45.53;99879.09;4424055;32;20926;-72
2022/03/29 08:25:33;;;;;;;29.45;15.43;;;;;;;14.68;45.51;99873.22;4430607;32;20101;-71
2022/03/29 08:28:01;;;;;;;28.15;15.38;;;;;;;14.82;45.01;99868.28;4439226;32;20170;-72
2022/03/29 08:30:30;;;;;;;34.13;15.98;;;;;;;15.29;45.70;99866.44;4424534;32;20180;-72
2022/03/29 08:32:58;;;;;;;30.95;16.12;;;;;;;15.40;44.25;99868.66;4438636;32;20097;-71
2022/03/29 08:35:30;;;;;;;35.08;15.80;;;;;;;15.23;43.90;99872.00;4431842;32;20722;-71
2022/03/29 08:37:58;;;;;;;32.22;15.80;;;;;;;15.64;44.13;99860.62;4432319;32;20504;-71
2022/03/29 08:40:46;;;;;;;28.50;15.20;;;;;;;16.09;42.34;99863.19;4430705;32;20097;-71
2022/03/29 08:43:15;;;;;;;28.50;14.95;;;;;;;16.15;42.02;99860.28;4420736;32;20093;-71
2022/03/29 08:45:47;;;;;;;40.45;16.70;;;;;;;16.14;42.10;99858.53;4427716;32;20742;-70
2022/03/29 08:48:15;;;;;;;32.50;15.68;;;;;;;16.24;41.27;99856.34;4431833;32;20101;-70
2022/03/29 08:50:45;;;;;;;36.03;15.27;;;;;;;16.51;41.75;99859.59;4427871;32;20729;-70
2022/03/29 08:53:16;;;;;;;32.03;16.17;;;;;;;16.98;40.55;99855.72;4424193;32;20098;-70
2022/03/29 08:55:44;;;;;;;28.42;15.23;;;;;;;17.07;40.39;99858.84;4438407;32;20164;-70
2022/03/29 08:58:12;;;;;;;34.85;14.90;;;;;;;17.39;40.05;99849.31;4438083;32;20555;-70
2022/03/29 09:00:41;;;;;;;37.45;16.58;;;;;;;17.66;38.12;99848.87;4423700;32;20176;-70
2022/03/29 09:03:10;;;;;;;42.60;16.98;;;;;;;17.86;38.48;99850.59;4432417;32;20119;-70
2022/03/29 09:05:37;;;;;;;33.40;16.33;;;;;;;17.69;37.83;99844.25;4437456;32;20097;-71
2022/03/29 09:08:08;;;;;;;31.90;16.05;;;;;;;17.68;37.86;99839.00;4425050;32;20772;-71
2022/03/29 09:10:42;;;;;;;26.90;14.82;;;;;;;17.85;38.23;99849.72;4429776;32;20745;-72
2022/03/29 09:13:24;;;;;;;29.80;16.20;;;;;;;18.01;36.99;99841.81;4423772;32;20444;-72
2022/03/29 09:15:57;;;;;;;39.67;15.65;;;;;;;18.16;37.63;99837.47;4438344;32;20152;-72
2022/03/29 09:18:26;;;;;;;26.80;14.77;;;;;;;18.21;37.14;99829.25;4438806;32;20507;-72
2022/03/29 09:21:12;;;;;;;30.52;15.23;;;;;;;18.40;36.46;99832.66;4429587;32;20109;-71
2022/03/29 09:23:42;;;;;;;29.87;14.87;;;;;;;18.48;36.03;99818.91;4439450;32;20121;-72
2022/03/29 09:26:26;;;;;;;24.35;16.30;;;;;;;18.78;35.68;99819.13;4428638;32;20169;-72
2022/03/29 09:28:53;;;;;;;26.30;15.60;;;;;;;19.46;35.29;99805.50;4431273;32;20102;-72
2022/03/29 09:31:22;;;;;;;27.20;14.35;;;;;;;19.85;33.73;99813.00;4425012;32;20789;-71
2022/03/29 09:33:51;;;;;;;39.60;15.90;;;;;;;19.93;32.31;99813.44;4420249;32;20077;-71
2022/03/29 09:36:20;;;;;;;24.00;14.98;;;;;;;19.72;33.88;99804.03;4419847;32;20197;-71
2022/03/29 09:38:51;;;;;;;29.95;13.98;;;;;;;19.93;33.40;99809.87;4434248;32;20425;-72
2022/03/29 09:41:32;;;;;;;26.40;14.32;;;;;;;19.99;33.47;99806.84;4440049;32;20102;-71
2022/03/29 09:44:11;;;;;;;36.35;14.95;;;;;;;19.93;32.41;99808.09;4439952;32;20076;-71
2022/03/29 09:47:04;;;;;;;30.62;15.15;;;;;;;20.11;33.10;99800.78;4425116;32;20089;-71
2022/03/29 09:49:49;;;;;;;32.38;14.80;;;;;;;20.58;31.86;99798.84;4424870;32;20135;-73
2022/03/29 09:52:18;;;;;;;26.33;14.68;;;;;;;20.29;32.35;99793.44;4425113;32;20139;-72
2022/03/29 09:55:06;;;;;;;25.10;14.40;;;;;;;20.43;32.50;99788.09;4438516;32;20172;-72
2022/03/29 09:57:35;;;;;;;27.35;13.45;;;;;;;20.92;32.20;99785.03;4440048;32;20127;-73
2022/03/29 10:00:05;;;;;;;21.42;14.00;;;;;;;21.06;31.10;99789.50;4434751;32;20135;-72
2022/03/29 10:02:41;;;;;;;29.50;13.88;;;;;;;20.70;31.08;99792.69;4424708;32;20089;-72
2022/03/29 10:05:10;;;;;;;24.70;13.75;;;;;;;20.55;32.08;99788.31;4410233;32;20085;-72
2022/03/29 10:09:25;;;;;;;34.35;13.80;;;;;;;20.21;32.24;99782.34;4428428;32;20128;-72
2022/03/29 10:10:46;;;;;;;31.30;14.65;;;;;;;19.97;32.16;99777.53;4429902;32;20168;-72
2022/03/29 10:13:17;;;;;;;23.42;13.90;;;;;;;20.16;31.98;99771.06;4424224;32;20457;-70
2022/03/29 10:15:45;;;;;;;22.80;13.68;;;;;;;20.32;31.65;99758.47;4424943;32;20089;-70
2022/03/29 10:18:14;;;;;;;36.78;13.18;;;;;;;20.92;30.71;99750.22;4416376;32;20109;-73
2022/03/29 10:20:41;;;;;;;29.48;13.95;;;;;;;21.52;30.62;99758.81;4436790;32;20124;-71
2022/03/29 10:23:11;;;;;;;25.62;13.05;;;;;;;21.76;29.31;99749.13;4436191;32;20148;-71
2022/03/29 10:25:39;;;;;;;21.10;12.07;;;;;;;22.33;29.04;99747.88;4429152;32;20140;-71
2022/03/29 10:28:06;;;;;;;28.40;13.65;;;;;;;22.36;28.38;99743.16;4433042;32;20104;-72
2022/03/29 10:30:36;;;;;;;24.92;12.05;;;;;;;21.78;28.34;99743.66;4430115;32;20089;-73
2022/03/29 10:33:23;;;;;;;24.20;12.50;;;;;;;22.28;28.28;99725.91;4428117;32;20158;-72
2022/03/29 10:36:11;;;;;;;23.25;12.85;;;;;;;22.31;27.72;99718.50;4423947;32;20107;-71
2022/03/29 10:41:29;;;;;;;22.80;12.85;;;;;;;22.83;26.96;99721.94;4437120;32;20105;-71
2022/03/29 10:44:04;;;;;;;34.72;12.50;;;;;;;23.07;26.42;99705.84;4430085;32;20154;-71
2022/03/29 10:46:38;;;;;;;38.67;13.25;;;;;;;22.79;26.84;99705.19;4436891;32;20509;-72
2022/03/29 10:49:15;;;;;;;24.87;12.35;;;;;;;23.30;26.10;99702.28;4431805;32;20090;-72
2022/03/29 10:51:43;;;;;;;20.73;12.25;;;;;;;23.67;25.35;99704.88;4426595;32;20101;-73
2022/03/29 10:54:26;;;;;;;20.60;11.55;;;;;;;23.82;25.65;99687.56;4424962;32;20150;-72
2022/03/29 10:57:03;;;;;;;23.38;11.73;;;;;;;23.93;23.63;99691.25;4430033;32;20105;-72
2022/03/29 10:59:32;;;;;;;26.52;11.68;;;;;;;24.01;23.91;99686.13;4430827;32;20137;-73
2022/03/29 11:02:13;;;;;;;22.65;11.80;;;;;;;24.41;23.68;99689.22;4427357;32;20125;-73
2022/03/29 11:05:05;;;;;;;23.15;13.25;;;;;;;24.33;22.10;99675.47;4429337;32;20773;-73
2022/03/29 11:07:59;;;;;;;32.17;13.10;;;;;;;25.00;22.31;99672.69;4432417;32;20125;-73
2022/03/29 11:10:44;;;;;;;38.00;12.52;;;;;;;25.72;22.43;99669.31;4431275;32;20097;-72
2022/03/29 11:13:29;;;;;;;21.58;12.52;;;;;;;26.78;21.22;99656.41;4432338;32;20097;-72
2022/03/29 11:16:01;;;;;;;22.87;12.45;;;;;;;27.76;21.32;99650.91;4431201;32;20084;-71
2022/03/29 11:18:31;;;;;;;23.90;12.40;;;;;;;27.50;19.50;99647.94;4430544;32;20148;-72
2022/03/29 11:21:04;;;;;;;20.00;12.50;;;;;;;28.07;18.89;99645.25;4432142;32;20161;-72
2022/03/29 11:23:36;;;;;;;23.10;11.23;;;;;;;28.34;18.67;99637.16;4429924;32;20129;-71
2022/03/29 11:26:12;;;;;;;21.85;11.93;;;;;;;27.58;18.37;99623.72;4431861;32;20081;-72
2022/03/29 11:28:59;;;;;;;21.70;12.52;;;;;;;28.00;18.20;99622.47;4426388;32;20135;-72
2022/03/29 11:31:35;;;;;;;27.67;12.43;;;;;;;27.84;18.27;99614.97;4435741;32;20093;-72
2022/03/29 11:34:03;;;;;;;19.37;11.38;;;;;;;28.32;18.00;99609.34;4434640;32;20106;-73
2022/03/29 11:36:34;;;;;;;17.58;11.85;;;;;;;28.80;17.76;99616.38;4431078;32;20777;-73
2022/03/29 11:39:01;;;;;;;25.83;11.80;;;;;;;28.85;17.70;99610.47;4431770;32;20473;-74
2022/03/29 11:41:33;;;;;;;33.38;13.27;;;;;;;28.27;17.61;99608.09;4424891;32;20090;-72
2022/03/29 11:44:03;;;;;;;24.48;12.43;;;;;;;28.27;17.49;99600.84;4437717;32;20089;-72